createdAt,value
2019-04-16T00:01:38.404Z,50.34
2019-04-16T00:05:22.365Z,50.40
2019-04-16T00:08:33.120Z,50.39
2019-04-16T00:11:21.656Z,50.75
2019-04-16T00:14:13.640Z,50.83
2019-04-16T00:16:46.930Z,51.03
2019-04-16T00:19:21.581Z,51.49
2019-04-16T00:22:12.592Z,51.07
2019-04-16T00:24:50.120Z,51.42
2019-04-16T00:27:28.312Z,51.36
2019-04-16T00:30:03.888Z,51.43
2019-04-16T00:32:38.022Z,51.47
2019-04-16T00:35:15.645Z,51.47
2019-04-16T00:37:51.426Z,51.62
2019-04-16T00:40:26.398Z,51.66
2019-04-16T00:42:57.701Z,51.94
2019-04-16T00:45:30.919Z,52.12
2019-04-16T00:48:05.600Z,51.93
2019-04-16T00:50:43.674Z,51.98
2019-04-16T00:53:16.818Z,51.91
2019-04-16T00:55:54.295Z,52.21
2019-04-16T00:58:28.770Z,52.30
2019-04-16T01:01:08.087Z,52.39
2019-04-16T01:03:43.116Z,52.72
2019-04-16T01:06:16.380Z,52.43
2019-04-16T01:08:54.709Z,52.68
2019-04-16T01:11:26.170Z,53.04
2019-04-16T01:13:59.423Z,52.82
2019-04-16T01:16:35.805Z,53.26
2019-04-16T01:19:09.992Z,52.85
2019-04-16T01:21:47.344Z,53.16
2019-04-16T01:24:22.278Z,53.42
2019-04-16T01:26:58.390Z,53.40
2019-04-16T01:29:35.245Z,53.33
2019-04-16T01:32:35.436Z,53.37
2019-04-16T01:35:27.621Z,53.65
2019-04-16T01:38:18.661Z,53.71
2019-04-16T01:41:00.852Z,53.78
2019-04-16T01:43:41.131Z,53.68
2019-04-16T01:46:09.971Z,53.76
2019-04-16T01:48:50.514Z,54.27
2019-04-16T01:51:25.452Z,54.23
2019-04-16T01:53:57.976Z,54.42
2019-04-16T01:56:35.242Z,54.48
2019-04-16T01:59:14.073Z,54.77
2019-04-16T02:01:47.364Z,54.97
2019-04-16T02:04:22.167Z,55.13
2019-04-16T02:06:57.874Z,54.88
2019-04-16T02:09:34.539Z,55.15
2019-04-16T02:12:06.338Z,54.97
2019-04-16T02:14:41.466Z,55.09
2019-04-16T02:17:16.941Z,55.13
2019-04-16T02:19:50.402Z,55.55
2019-04-16T02:22:27.874Z,55.28
2019-04-16T02:25:02.776Z,55.45
2019-04-16T02:27:40.276Z,55.72
2019-04-16T02:30:17.583Z,56.09
2019-04-16T02:32:51.460Z,56.19
2019-04-16T02:35:32.707Z,56.08
2019-04-16T02:38:10.197Z,56.00
2019-04-16T02:40:39.173Z,56.22
2019-04-16T02:43:18.030Z,56.12
2019-04-16T02:45:47.527Z,56.35
2019-04-16T02:48:22.355Z,56.49
2019-04-16T02:51:07.411Z,56.10
2019-04-16T02:54:02.057Z,56.62
2019-04-16T02:57:01.582Z,56.77
2019-04-16T02:59:45.700Z,56.87
2019-04-16T03:02:33.070Z,56.68
2019-04-16T03:05:11.937Z,56.90
2019-04-16T03:07:45.351Z,57.05
2019-04-16T03:10:18.695Z,57.01
2019-04-16T03:12:55.422Z,57.14
2019-04-16T03:15:56.814Z,57.04
2019-04-16T03:18:37.104Z,57.08
2019-04-16T03:21:11.870Z,57.28
2019-04-16T03:23:45.276Z,56.93
2019-04-16T03:26:18.613Z,57.45
2019-04-16T03:28:51.979Z,57.73
2019-04-16T03:31:26.500Z,57.78
2019-04-16T03:34:02.710Z,58.14
2019-04-16T03:36:37.760Z,58.30
2019-04-16T03:39:13.188Z,58.22
2019-04-16T03:41:46.243Z,58.11
2019-04-16T03:44:21.267Z,58.52
2019-04-16T03:46:54.599Z,58.59
2019-04-16T03:49:28.504Z,58.83
2019-04-16T03:52:04.785Z,58.64
2019-04-16T03:54:36.941Z,58.76
2019-04-16T03:57:10.313Z,58.37
2019-04-16T03:59:49.463Z,58.79
2019-04-16T04:02:23.116Z,58.70
2019-04-16T04:04:57.607Z,58.83
2019-04-16T04:07:33.383Z,58.78
2019-04-16T04:10:11.569Z,58.74
2019-04-16T04:12:50.194Z,58.96
2019-04-16T04:15:26.368Z,59.02
2019-04-16T04:18:03.201Z,59.03
2019-04-16T04:20:37.630Z,59.13
2019-04-16T04:23:11.072Z,59.27
2019-04-16T04:25:45.053Z,59.21
2019-04-16T04:28:29.199Z,59.13
2019-04-16T04:31:05.588Z,59.08
2019-04-16T04:33:42.690Z,58.98
2019-04-16T04:36:14.824Z,58.71
2019-04-16T04:38:53.548Z,59.13
2019-04-16T04:41:29.124Z,64.49
2019-04-16T04:44:14.048Z,58.73
2019-04-16T04:46:47.331Z,59.04
2019-04-16T04:49:29.931Z,58.42
2019-04-16T04:51:57.170Z,57.87
2019-04-16T04:54:30.775Z,57.65
2019-04-16T04:57:04.499Z,57.31
2019-04-16T04:59:37.791Z,57.19
2019-04-16T05:02:14.536Z,57.01
2019-04-16T05:05:10.992Z,56.89
2019-04-16T05:07:44.282Z,56.48
2019-04-16T05:10:19.569Z,55.60
2019-04-16T05:12:53.569Z,55.08
2019-04-16T05:15:29.441Z,54.76
2019-04-16T05:18:06.239Z,54.56
2019-04-16T05:20:41.290Z,54.32
2019-04-16T05:23:17.853Z,54.03
2019-04-16T05:25:55.970Z,53.68
2019-04-16T05:28:29.193Z,52.73
2019-04-16T05:31:03.886Z,51.95
2019-04-16T05:33:39.651Z,51.97
2019-04-16T05:36:14.179Z,51.74
2019-04-16T05:38:49.160Z,50.74
2019-04-16T05:41:24.308Z,50.45
2019-04-16T05:43:58.474Z,49.97
2019-04-16T05:46:34.708Z,49.51
2019-04-16T05:49:09.172Z,49.37
2019-04-16T05:51:42.272Z,48.64
2019-04-16T05:54:44.324Z,48.32
2019-04-16T05:57:25.644Z,48.13
2019-04-16T06:00:02.794Z,47.97
2019-04-16T06:02:41.956Z,47.95
2019-04-16T06:05:21.119Z,47.59
2019-04-16T06:07:51.823Z,46.98
2019-04-16T06:10:25.096Z,46.73
2019-04-16T06:13:14.872Z,47.02
2019-04-16T06:16:26.179Z,46.36
2019-04-16T06:19:11.536Z,45.66
2019-04-16T06:22:21.841Z,45.74
2019-04-16T06:25:16.572Z,44.72
2019-04-16T06:28:00.869Z,43.78
2019-04-16T06:30:53.798Z,43.19
2019-04-16T06:33:54.496Z,43.05
2019-04-16T06:36:45.103Z,43.06
2019-04-16T06:39:33.003Z,41.74
2019-04-16T06:42:13.288Z,42.00
2019-04-16T06:45:08.305Z,42.01
2019-04-16T06:48:00.151Z,41.98
2019-04-16T06:50:59.621Z,41.33
2019-04-16T06:53:56.712Z,41.34
2019-04-16T06:56:41.940Z,41.32
2019-04-16T06:59:45.982Z,41.14
2019-04-16T07:02:43.199Z,41.25
2019-04-16T07:05:31.934Z,41.04
2019-04-16T07:08:37.462Z,41.34
2019-04-16T07:11:05.343Z,40.21
2019-04-16T07:13:41.925Z,41.00
2019-04-16T07:16:19.777Z,41.06
2019-04-16T07:19:16.803Z,42.62
2019-04-16T07:21:49.944Z,39.46
2019-04-16T07:24:30.088Z,39.74
2019-04-16T07:27:01.943Z,39.39
2019-04-16T07:29:57.937Z,38.78
2019-04-16T07:33:06.537Z,38.09
2019-04-16T07:36:15.964Z,38.34
2019-04-16T07:39:13.332Z,38.24
2019-04-16T07:42:09.370Z,37.76
2019-04-16T07:44:55.518Z,37.58
2019-04-16T07:47:43.686Z,37.01
2019-04-16T07:50:35.656Z,38.11
2019-04-16T07:53:38.386Z,36.84
2019-04-16T07:56:20.564Z,37.10
2019-04-16T07:59:12.936Z,36.22
2019-04-16T08:01:47.722Z,35.82
2019-04-16T08:04:36.477Z,35.64
2019-04-16T08:07:20.198Z,35.89
2019-04-16T08:09:53.861Z,35.15
2019-04-16T08:12:36.980Z,34.69
2019-04-16T08:15:14.195Z,35.05
2019-04-16T08:17:54.610Z,33.05
2019-04-16T08:20:27.989Z,34.13
2019-04-16T08:23:03.209Z,33.29
2019-04-16T08:25:39.124Z,32.84
2019-04-16T08:28:24.355Z,31.38
2019-04-16T08:31:00.764Z,31.08
2019-04-16T08:33:34.166Z,31.02
2019-04-16T08:36:24.825Z,30.89
2019-04-16T08:39:16.209Z,29.82
2019-04-16T08:41:52.089Z,30.85
2019-04-16T08:44:42.005Z,29.69
2019-04-16T08:47:17.551Z,29.23
2019-04-16T08:50:11.549Z,27.71
2019-04-16T08:52:58.697Z,27.87
2019-04-16T08:55:31.788Z,27.79
2019-04-16T08:58:22.759Z,28.93
2019-04-16T09:01:18.768Z,27.21
2019-04-16T09:03:50.687Z,26.52
2019-04-16T09:06:26.500Z,27.37
2019-04-16T09:09:14.230Z,27.21
2019-04-16T09:12:14.102Z,25.72
2019-04-16T09:14:56.061Z,26.75
2019-04-16T09:17:34.873Z,26.50
2019-04-16T09:20:13.519Z,26.83
2019-04-16T09:22:49.466Z,26.95
2019-04-16T09:25:33.070Z,25.73
2019-04-16T09:28:25.839Z,26.53
2019-04-16T09:31:30.677Z,25.27
2019-04-16T09:34:22.512Z,26.00
2019-04-16T09:37:25.398Z,28.15
2019-04-16T09:40:18.075Z,27.32
2019-04-16T09:43:16.172Z,26.94
2019-04-16T09:45:41.808Z,25.77
2019-04-16T09:48:27.134Z,29.31
2019-04-16T09:51:02.882Z,27.76
2019-04-16T09:53:40.379Z,27.32
2019-04-16T09:56:32.245Z,26.27
2019-04-16T09:59:15.851Z,26.20
2019-04-16T10:02:10.934Z,24.98
2019-04-16T10:05:01.491Z,25.68
2019-04-16T10:07:41.098Z,25.06
2019-04-16T10:10:32.168Z,23.70
2019-04-16T10:13:14.346Z,25.43
2019-04-16T10:15:47.538Z,25.98
2019-04-16T10:18:37.902Z,25.43
2019-04-16T10:21:18.776Z,24.62
2019-04-16T10:24:35.825Z,25.76
2019-04-16T10:27:34.025Z,25.15
2019-04-16T10:30:35.937Z,24.34
2019-04-16T10:33:15.066Z,24.54
2019-04-16T10:35:48.214Z,24.28
2019-04-16T10:38:55.072Z,24.36
2019-04-16T10:41:58.438Z,23.93
2019-04-16T10:44:49.925Z,24.51
2019-04-16T10:48:03.711Z,23.72
2019-04-16T10:51:04.943Z,24.40
2019-04-16T10:53:53.841Z,24.42
2019-04-16T10:56:46.487Z,22.35
2019-04-16T10:59:49.590Z,23.50
2019-04-16T11:02:44.062Z,22.72
2019-04-16T11:05:41.752Z,23.36
2019-04-16T11:08:15.323Z,23.38
2019-04-16T11:10:48.337Z,22.60
2019-04-16T11:13:58.350Z,23.34
2019-04-16T11:16:37.210Z,23.92
2019-04-16T11:19:27.663Z,24.00
2019-04-16T11:22:16.062Z,23.62
2019-04-16T11:24:52.398Z,23.41
2019-04-16T11:27:25.550Z,23.47
2019-04-16T11:30:31.285Z,24.17
2019-04-16T11:33:07.682Z,23.32
2019-04-16T11:35:40.854Z,23.52
2019-04-16T11:38:31.413Z,23.85
2019-04-16T11:41:07.323Z,22.86
2019-04-16T11:43:57.733Z,23.68
2019-04-16T11:46:46.662Z,22.58
2019-04-16T11:49:34.924Z,22.91
2019-04-16T11:52:25.881Z,26.19
2019-04-16T11:55:01.503Z,22.76
2019-04-16T11:57:40.529Z,22.76
2019-04-16T12:00:50.929Z,22.47
2019-04-16T12:03:37.033Z,23.02
2019-04-16T12:06:53.301Z,22.96
2019-04-16T12:09:54.274Z,23.05
2019-04-16T12:13:04.405Z,22.47
2019-04-16T12:15:57.367Z,22.08
2019-04-16T12:18:35.741Z,22.62
2019-04-16T12:21:45.265Z,21.97
2019-04-16T12:24:54.901Z,22.31
2019-04-16T12:27:45.795Z,21.94
2019-04-16T12:31:10.471Z,21.60
2019-04-16T12:34:05.318Z,22.56
2019-04-16T12:36:59.746Z,21.88
2019-04-16T12:39:50.024Z,22.73
2019-04-16T12:42:57.309Z,21.25
2019-04-16T12:45:49.187Z,21.15
2019-04-16T12:48:59.448Z,21.66
2019-04-16T12:51:57.318Z,21.23
2019-04-16T12:55:04.512Z,22.40
2019-04-16T12:57:49.341Z,22.35
2019-04-16T13:00:37.151Z,23.07
2019-04-16T13:03:52.374Z,22.43
2019-04-16T13:06:55.234Z,21.93
2019-04-16T13:09:45.983Z,22.41
2019-04-16T13:12:40.961Z,22.58
2019-04-16T13:15:31.635Z,21.60
2019-04-16T13:18:08.199Z,21.23
2019-04-16T13:21:18.096Z,22.23
2019-04-16T13:24:19.342Z,22.03
2019-04-16T13:27:08.897Z,22.21
2019-04-16T13:29:41.972Z,21.25
2019-04-16T13:32:27.926Z,21.36
2019-04-16T13:35:01.191Z,22.22
2019-04-16T13:37:41.385Z,22.14
2019-04-16T13:40:16.208Z,22.16
2019-04-16T13:42:51.977Z,21.47
2019-04-16T13:45:40.572Z,20.98
2019-04-16T13:48:35.151Z,22.29
2019-04-16T13:51:15.122Z,22.86
2019-04-16T13:54:00.361Z,22.62
2019-04-16T13:57:00.007Z,22.27
2019-04-16T14:00:04.364Z,22.64
2019-04-16T14:03:13.887Z,21.94
2019-04-16T14:05:47.239Z,22.95
2019-04-16T14:08:20.264Z,22.24
2019-04-16T14:10:53.338Z,22.13
2019-04-16T14:13:26.462Z,21.80
2019-04-16T14:15:59.515Z,21.93
2019-04-16T14:18:35.615Z,22.02
2019-04-16T14:21:08.568Z,22.34
2019-04-16T14:23:41.706Z,22.09
2019-04-16T14:26:16.385Z,22.50
2019-04-16T14:28:52.437Z,21.97
2019-04-16T14:31:25.868Z,22.43
2019-04-16T14:34:16.647Z,22.49
2019-04-16T14:36:53.119Z,22.15
2019-04-16T14:39:35.142Z,22.95
2019-04-16T14:42:08.442Z,23.18
2019-04-16T14:44:45.541Z,22.82
2019-04-16T14:47:18.583Z,22.54
2019-04-16T14:49:51.796Z,22.35
2019-04-16T14:52:25.898Z,22.71
2019-04-16T14:55:10.486Z,22.80
2019-04-16T14:58:00.853Z,22.85
2019-04-16T15:00:49.123Z,23.65
2019-04-16T15:03:43.098Z,23.05
2019-04-16T15:06:39.687Z,23.30
2019-04-16T15:09:30.208Z,23.27
2019-04-16T15:12:21.067Z,23.28
2019-04-16T15:14:58.610Z,23.36
2019-04-16T15:17:44.485Z,23.82
2019-04-16T15:20:39.537Z,23.63
2019-04-16T15:23:30.710Z,24.01
2019-04-16T15:26:37.661Z,23.87
2019-04-16T15:29:41.905Z,23.87
2019-04-16T15:32:34.096Z,23.82
2019-04-16T15:35:13.867Z,23.72
2019-04-16T15:38:02.719Z,23.14
2019-04-16T15:40:40.299Z,23.34
2019-04-16T15:43:30.255Z,23.83
2019-04-16T15:46:26.153Z,22.63
2019-04-16T15:49:19.422Z,22.94
2019-04-16T15:52:02.710Z,23.17
2019-04-16T15:54:43.903Z,23.64
2019-04-16T15:57:50.858Z,23.61
2019-04-16T16:00:48.905Z,22.87
2019-04-16T16:03:49.969Z,23.74
2019-04-16T16:06:24.798Z,22.65
2019-04-16T16:09:22.808Z,23.20
2019-04-16T16:12:00.975Z,23.73
2019-04-16T16:14:38.545Z,23.71
2019-04-16T16:17:09.474Z,23.64
2019-04-16T16:19:42.550Z,23.46
2019-04-16T16:22:16.854Z,23.63
2019-04-16T16:24:49.883Z,23.83
2019-04-16T16:27:22.972Z,23.78
2019-04-16T16:29:56.189Z,23.44
2019-04-16T16:32:29.222Z,23.69
2019-04-16T16:35:02.357Z,23.55
2019-04-16T16:37:36.894Z,24.40
2019-04-16T16:40:14.628Z,23.32
2019-04-16T16:42:46.705Z,23.74
2019-04-16T16:45:22.063Z,24.24
2019-04-16T16:47:56.521Z,23.73
2019-04-16T16:50:29.734Z,23.53
2019-04-16T16:53:25.251Z,23.04
2019-04-16T16:56:02.296Z,23.44
2019-04-16T16:58:54.518Z,23.52
2019-04-16T17:01:35.994Z,23.90
2019-04-16T17:04:12.976Z,23.62
2019-04-16T17:06:46.258Z,23.91
2019-04-16T17:09:27.140Z,23.60
2019-04-16T17:11:59.469Z,24.19
2019-04-16T17:14:36.270Z,24.20
2019-04-16T17:17:14.177Z,23.76
2019-04-16T17:19:42.329Z,24.16
2019-04-16T17:22:17.400Z,24.02
2019-04-16T17:24:50.462Z,24.70
2019-04-16T17:27:25.936Z,24.74
2019-04-16T17:29:59.017Z,24.57
2019-04-16T17:32:32.289Z,24.94
2019-04-16T17:35:07.580Z,24.99
2019-04-16T17:37:48.372Z,25.31
2019-04-16T17:40:33.643Z,25.12
2019-04-16T17:43:15.669Z,25.09
2019-04-16T17:46:14.508Z,25.11
2019-04-16T17:49:09.657Z,25.55
2019-04-16T17:51:54.731Z,25.31
2019-04-16T17:54:34.504Z,25.68
2019-04-16T17:57:16.994Z,24.92
2019-04-16T18:00:00.461Z,25.74
2019-04-16T18:03:04.561Z,25.84
2019-04-16T18:05:42.788Z,25.89
2019-04-16T18:08:40.817Z,25.86
2019-04-16T18:11:17.729Z,26.00
2019-04-16T18:13:58.047Z,26.46
2019-04-16T18:16:46.122Z,26.71
2019-04-16T18:19:37.069Z,26.66
2019-04-16T18:22:19.558Z,26.86
2019-04-16T18:25:21.353Z,28.23
2019-04-16T18:28:06.217Z,27.73
2019-04-16T18:30:57.309Z,27.64
2019-04-16T18:33:48.524Z,27.90
2019-04-16T18:36:34.596Z,28.43
2019-04-16T18:39:27.235Z,28.29
2019-04-16T18:42:19.178Z,27.96
2019-04-16T18:45:11.404Z,27.96
2019-04-16T18:48:13.862Z,28.13
2019-04-16T18:50:45.287Z,28.28
2019-04-16T18:53:18.892Z,28.98
2019-04-16T18:55:52.394Z,29.59
2019-04-16T18:58:26.681Z,30.09
2019-04-16T19:01:03.020Z,30.00
2019-04-16T19:03:37.386Z,30.86
2019-04-16T19:06:13.941Z,30.76
2019-04-16T19:08:50.671Z,30.75
2019-04-16T19:11:24.369Z,30.63
2019-04-16T19:14:03.728Z,30.95
2019-04-16T19:16:38.065Z,30.79
2019-04-16T19:19:12.288Z,30.97
2019-04-16T19:21:51.343Z,30.13
2019-04-16T19:24:24.263Z,30.40
2019-04-16T19:26:57.731Z,31.29
2019-04-16T19:29:35.854Z,31.54
2019-04-16T19:32:10.458Z,32.00
2019-04-16T19:34:46.986Z,31.08
2019-04-16T19:37:20.504Z,31.56
2019-04-16T19:39:56.260Z,32.20
2019-04-16T19:42:33.368Z,32.31
2019-04-16T19:45:08.654Z,33.13
2019-04-16T19:47:43.091Z,33.27
2019-04-16T19:50:17.757Z,33.85
2019-04-16T19:52:54.997Z,33.76
2019-04-16T19:55:29.436Z,34.18
2019-04-16T19:58:02.620Z,34.67
2019-04-16T20:00:36.446Z,35.05
2019-04-16T20:03:13.188Z,34.38
2019-04-16T20:05:50.996Z,34.34
2019-04-16T20:08:24.228Z,33.59
2019-04-16T20:11:04.009Z,33.70
2019-04-16T20:13:37.511Z,33.45
2019-04-16T20:16:12.176Z,33.01
2019-04-16T20:18:51.080Z,32.82
2019-04-16T20:21:28.601Z,33.10
2019-04-16T20:24:02.062Z,33.37
2019-04-16T20:26:56.404Z,33.54
2019-04-16T20:29:47.555Z,33.44
2019-04-16T20:32:24.523Z,33.16
2019-04-16T20:35:00.511Z,33.63
2019-04-16T20:37:35.310Z,33.75
2019-04-16T20:40:14.687Z,33.84
2019-04-16T20:42:53.606Z,33.95
2019-04-16T20:45:27.526Z,33.98
2019-04-16T20:48:01.124Z,34.20
2019-04-16T20:50:37.181Z,34.10
2019-04-16T20:53:21.703Z,34.32
2019-04-16T20:55:57.783Z,34.83
2019-04-16T20:58:34.896Z,34.71
2019-04-16T21:01:32.803Z,34.90
2019-04-16T21:04:05.037Z,35.15
2019-04-16T21:06:32.958Z,34.95
2019-04-16T21:09:10.242Z,35.40
2019-04-16T21:11:52.946Z,35.87
2019-04-16T21:14:31.996Z,35.75
2019-04-16T21:17:22.199Z,35.74
2019-04-16T21:19:55.365Z,35.59
2019-04-16T21:22:28.963Z,35.99
2019-04-16T21:25:13.797Z,36.09
2019-04-16T21:27:58.503Z,36.35
2019-04-16T21:30:47.058Z,36.52
2019-04-16T21:33:41.278Z,36.60
2019-04-16T21:36:33.875Z,36.83
2019-04-16T21:39:23.117Z,36.61
2019-04-16T21:42:02.372Z,37.01
2019-04-16T21:44:44.564Z,37.30
2019-04-16T21:47:23.599Z,37.50
2019-04-16T21:49:59.734Z,37.89
2019-04-16T21:52:36.885Z,38.11
2019-04-16T21:55:13.910Z,38.42
2019-04-16T21:57:48.873Z,38.45
2019-04-16T22:00:48.353Z,38.75
2019-04-16T22:03:27.328Z,38.71
2019-04-16T22:06:01.049Z,38.87
2019-04-16T22:08:34.412Z,39.10
2019-04-16T22:11:11.780Z,39.52
2019-04-16T22:13:44.113Z,39.75
2019-04-16T22:16:18.938Z,40.03
2019-04-16T22:18:55.092Z,40.11
2019-04-16T22:21:30.630Z,40.19
2019-04-16T22:24:05.244Z,40.41
2019-04-16T22:26:40.135Z,40.76
2019-04-16T22:29:15.798Z,40.91
2019-04-16T22:31:52.676Z,41.06
2019-04-16T22:34:23.215Z,41.44
2019-04-16T22:36:58.070Z,41.51
2019-04-16T22:39:35.818Z,41.84
2019-04-16T22:42:35.150Z,41.66
2019-04-16T22:45:32.022Z,41.89
2019-04-16T22:48:09.105Z,42.63
2019-04-16T22:50:44.696Z,42.56
2019-04-16T22:53:18.063Z,42.83
2019-04-16T22:55:56.322Z,42.66
2019-04-16T22:58:46.525Z,42.80
2019-04-16T23:01:23.520Z,43.16
2019-04-16T23:03:58.856Z,43.56
2019-04-16T23:06:38.680Z,43.86
2019-04-16T23:09:17.904Z,44.04
2019-04-16T23:11:52.688Z,44.18
2019-04-16T23:14:26.193Z,45.16
2019-04-16T23:17:01.266Z,45.24
2019-04-16T23:19:40.649Z,45.60
2019-04-16T23:22:16.401Z,46.36
2019-04-16T23:24:51.737Z,46.02
2019-04-16T23:27:26.534Z,46.06
2019-04-16T23:30:00.422Z,46.27
2019-04-16T23:32:36.023Z,47.04
2019-04-16T23:35:13.477Z,47.20
2019-04-16T23:37:47.879Z,47.58
2019-04-16T23:40:21.225Z,47.75
2019-04-16T23:43:23.153Z,48.24
2019-04-16T23:46:31.092Z,48.45
2019-04-16T23:49:29.090Z,48.43
2019-04-16T23:52:12.827Z,48.66
2019-04-16T23:54:57.743Z,49.19
2019-04-16T23:57:56.801Z,48.83
